Time;durP1;ratioP1;P1;durP2;ratioP2;P2;SDS_P1;SDS_P2;PMS_P1;PMS_P2;Temp;Humidity;BMP_temperature;BMP_pressure;BME280_temperature;BME280_humidity;BME280_pressure;Samples;Min_cycle;Max_cycle;Signal;HPM_P1;HPM_P2
2021/03/02 00:00:13;;;;;;;18.30;11.13;;;;;;;;;;1040510;28;20470;-51
2021/03/02 00:00:43;;;;;;;16.23;10.40;;;;;;;;;;1040584;28;20166;-51
2021/03/02 00:01:14;;;;;;;16.43;10.33;;;;;;;;;;1036733;28;20069;-51
2021/03/02 00:01:45;;;;;;;21.00;11.57;;;;;;;;;;1040653;28;20022;-51
2021/03/02 00:02:15;;;;;;;17.97;10.83;;;;;;;;;;1036572;28;20022;-52
2021/03/02 00:02:45;;;;;;;17.73;10.87;;;;;;;;;;1032503;28;20277;-51
2021/03/02 00:03:16;;;;;;;16.13;10.30;;;;;;;;;;1032566;28;20007;-51
2021/03/02 00:03:47;;;;;;;16.17;10.23;;;;;;;;;;1032483;28;20021;-51
2021/03/02 00:04:17;;;;;;;16.27;10.00;;;;;;;;;;1036651;28;20485;-55
2021/03/02 00:04:48;;;;;;;16.63;11.00;;;;;;;;;;1032382;28;20018;-54
2021/03/02 00:05:18;;;;;;;16.93;10.37;;;;;;;;;;1036363;28;20105;-51
2021/03/02 00:05:48;;;;;;;17.60;11.07;;;;;;;;;;1036523;28;20363;-54
2021/03/02 00:06:19;;;;;;;16.80;10.73;;;;;;;;;;1036538;28;20014;-53
2021/03/02 00:06:50;;;;;;;17.03;10.67;;;;;;;;;;1040476;28;20059;-54
2021/03/02 00:07:20;;;;;;;16.88;10.48;;;;;;;;;;1040525;28;20068;-54
2021/03/02 00:07:51;;;;;;;15.57;10.27;;;;;;;;;;1040662;28;20111;-51
2021/03/02 00:08:21;;;;;;;18.93;11.50;;;;;;;;;;1035884;28;20010;-52
2021/03/02 00:08:51;;;;;;;17.83;10.67;;;;;;;;;;1036188;28;20344;-52
2021/03/02 00:09:22;;;;;;;17.63;10.77;;;;;;;;;;1036435;28;20118;-52
2021/03/02 00:09:52;;;;;;;19.50;10.70;;;;;;;;;;1036572;28;20525;-51
2021/03/02 00:10:22;;;;;;;16.87;11.17;;;;;;;;;;1038527;28;20100;-52
2021/03/02 00:10:53;;;;;;;16.33;10.90;;;;;;;;;;1038294;28;20044;-52
2021/03/02 00:11:24;;;;;;;19.45;11.25;;;;;;;;;;1038934;28;20097;-54
2021/03/02 00:11:54;;;;;;;20.20;10.47;;;;;;;;;;1040635;28;20442;-52
2021/03/02 00:12:24;;;;;;;16.50;10.77;;;;;;;;;;1038653;28;20014;-51
2021/03/02 00:12:55;;;;;;;17.63;10.40;;;;;;;;;;1036268;28;20166;-51
2021/03/02 00:13:25;;;;;;;17.87;10.93;;;;;;;;;;1032165;28;20495;-51
2021/03/02 00:13:55;;;;;;;20.43;11.33;;;;;;;;;;1036524;28;20010;-53
2021/03/02 00:14:25;;;;;;;19.97;11.10;;;;;;;;;;1032243;28;20471;-52
2021/03/02 00:14:56;;;;;;;19.23;10.73;;;;;;;;;;1032357;28;20011;-51
2021/03/02 00:15:26;;;;;;;20.60;10.77;;;;;;;;;;1036404;28;20025;-52
2021/03/02 00:15:58;;;;;;;21.23;10.77;;;;;;;;;;1036498;28;20010;-53
2021/03/02 00:16:28;;;;;;;16.92;11.07;;;;;;;;;;1036717;28;20017;-51
2021/03/02 00:17:00;;;;;;;17.93;10.33;;;;;;;;;;1036390;28;20101;-52
2021/03/02 00:17:30;;;;;;;17.48;10.85;;;;;;;;;;1036368;28;20089;-51
2021/03/02 00:18:00;;;;;;;15.87;10.47;;;;;;;;;;1036476;28;20112;-51
2021/03/02 00:18:46;;;;;;;18.50;10.67;;;;;;;;;;1036412;28;20024;-52
2021/03/02 00:19:18;;;;;;;15.82;10.60;;;;;;;;;;1036065;28;20068;-53
2021/03/02 00:19:49;;;;;;;16.63;10.65;;;;;;;;;;1039856;28;20354;-51
2021/03/02 00:20:20;;;;;;;15.90;10.55;;;;;;;;;;1036273;28;20072;-52
2021/03/02 00:20:52;;;;;;;18.47;11.17;;;;;;;;;;1032134;28;20077;-53
2021/03/02 00:21:29;;;;;;;15.93;10.57;;;;;;;;;;1028835;28;20263;-51
2021/03/02 00:22:22;;;;;;;15.73;10.15;;;;;;;;;;1032435;28;20057;-52
2021/03/02 00:22:56;;;;;;;17.45;10.90;;;;;;;;;;1030963;28;20038;-53
2021/03/02 00:23:27;;;;;;;14.52;10.43;;;;;;;;;;1040720;28;20002;-50
2021/03/02 00:23:58;;;;;;;17.63;10.70;;;;;;;;;;1040495;28;20360;-51
2021/03/02 00:24:32;;;;;;;16.03;11.00;;;;;;;;;;1036363;28;20082;-53
2021/03/02 00:25:03;;;;;;;19.33;10.75;;;;;;;;;;1036371;28;20486;-50
2021/03/02 00:25:37;;;;;;;16.05;10.80;;;;;;;;;;1037154;28;20498;-51
2021/03/02 00:26:08;;;;;;;18.67;10.63;;;;;;;;;;1040290;28;20497;-50
2021/03/02 00:26:40;;;;;;;19.33;11.20;;;;;;;;;;1035502;28;20071;-53
2021/03/02 00:27:11;;;;;;;18.80;11.57;;;;;;;;;;1038770;28;20010;-50
2021/03/02 00:27:41;;;;;;;17.50;10.87;;;;;;;;;;1036386;28;20034;-50
2021/03/02 00:28:12;;;;;;;16.67;10.43;;;;;;;;;;1032361;28;20002;-51
2021/03/02 00:28:42;;;;;;;18.67;11.13;;;;;;;;;;1028134;28;20011;-50
2021/03/02 00:29:12;;;;;;;16.80;10.37;;;;;;;;;;1031572;28;20003;-50
2021/03/02 00:29:42;;;;;;;17.03;10.73;;;;;;;;;;1028287;28;20035;-51
2021/03/02 00:30:14;;;;;;;17.87;10.93;;;;;;;;;;1031837;28;20456;-56
2021/03/02 00:30:44;;;;;;;16.20;11.05;;;;;;;;;;1031946;28;20703;-53
2021/03/02 00:31:15;;;;;;;19.83;11.77;;;;;;;;;;1032348;28;20053;-52
2021/03/02 00:31:45;;;;;;;16.77;10.87;;;;;;;;;;1036410;28;20029;-51
2021/03/02 00:32:18;;;;;;;18.80;11.10;;;;;;;;;;1036357;28;19998;-49
2021/03/02 00:32:49;;;;;;;18.55;11.55;;;;;;;;;;1040449;28;20068;-50
2021/03/02 00:33:20;;;;;;;15.97;10.97;;;;;;;;;;1040730;28;20009;-52
2021/03/02 00:33:51;;;;;;;19.45;11.52;;;;;;;;;;1040678;28;20405;-52
2021/03/02 00:34:21;;;;;;;17.17;11.33;;;;;;;;;;1040752;28;20009;-50
2021/03/02 00:34:51;;;;;;;19.70;11.50;;;;;;;;;;1040833;28;20092;-51
2021/03/02 00:35:21;;;;;;;21.00;11.70;;;;;;;;;;1040759;28;20002;-51
2021/03/02 00:35:52;;;;;;;16.17;10.53;;;;;;;;;;1040775;28;20063;-51
2021/03/02 00:36:22;;;;;;;17.50;11.53;;;;;;;;;;1040844;28;20088;-51
2021/03/02 00:36:52;;;;;;;17.20;10.53;;;;;;;;;;1040720;28;20461;-50
2021/03/02 00:37:22;;;;;;;18.27;10.97;;;;;;;;;;1040781;28;20002;-50
2021/03/02 00:37:53;;;;;;;16.70;10.67;;;;;;;;;;1040932;28;20002;-50
2021/03/02 00:38:23;;;;;;;21.47;11.33;;;;;;;;;;1040744;28;20006;-51
2021/03/02 00:38:54;;;;;;;17.77;10.67;;;;;;;;;;1040770;28;20002;-50
2021/03/02 00:39:24;;;;;;;15.53;10.43;;;;;;;;;;1040663;28;20014;-50
2021/03/02 00:39:54;;;;;;;18.70;10.33;;;;;;;;;;1040838;28;20029;-51
2021/03/02 00:40:25;;;;;;;17.30;10.80;;;;;;;;;;1040745;28;20013;-51
2021/03/02 00:40:55;;;;;;;18.30;10.97;;;;;;;;;;1040416;28;20028;-52
2021/03/02 00:41:25;;;;;;;20.37;11.10;;;;;;;;;;1040207;28;20176;-50
2021/03/02 00:41:55;;;;;;;17.10;11.17;;;;;;;;;;1041016;28;20423;-52
2021/03/02 00:42:26;;;;;;;17.10;10.80;;;;;;;;;;1040970;28;20010;-49
2021/03/02 00:42:57;;;;;;;16.97;10.53;;;;;;;;;;1040831;28;20068;-51
2021/03/02 00:43:27;;;;;;;18.02;10.50;;;;;;;;;;1040672;28;20055;-51
2021/03/02 00:43:57;;;;;;;16.80;10.63;;;;;;;;;;1040837;28;20067;-50
2021/03/02 00:44:28;;;;;;;19.90;10.87;;;;;;;;;;1040652;28;20010;-50
2021/03/02 00:44:58;;;;;;;19.70;11.07;;;;;;;;;;1040626;28;20006;-50
2021/03/02 00:45:28;;;;;;;18.80;11.73;;;;;;;;;;1040351;28;20021;-50
2021/03/02 00:45:59;;;;;;;21.73;11.53;;;;;;;;;;1040592;28;20088;-50
2021/03/02 00:46:29;;;;;;;17.40;11.07;;;;;;;;;;1040333;28;20014;-53
2021/03/02 00:46:59;;;;;;;21.50;11.73;;;;;;;;;;1040430;28;20010;-53
2021/03/02 00:47:30;;;;;;;19.40;11.00;;;;;;;;;;1040359;28;20017;-53
2021/03/02 00:48:00;;;;;;;18.83;11.43;;;;;;;;;;1040495;28;20017;-52
2021/03/02 00:48:30;;;;;;;18.90;10.47;;;;;;;;;;1040384;28;20013;-51
2021/03/02 00:49:00;;;;;;;19.13;10.83;;;;;;;;;;1040580;28;20009;-52
2021/03/02 00:49:31;;;;;;;18.87;10.77;;;;;;;;;;1040689;28;20469;-52
2021/03/02 00:50:03;;;;;;;17.43;10.77;;;;;;;;;;1040635;28;20022;-52
2021/03/02 00:50:33;;;;;;;19.50;11.48;;;;;;;;;;1040192;28;20036;-52
2021/03/02 00:51:03;;;;;;;16.53;10.70;;;;;;;;;;1040175;28;20025;-56
2021/03/02 00:51:34;;;;;;;20.10;11.07;;;;;;;;;;1040266;28;20033;-49
2021/03/02 00:52:04;;;;;;;15.77;10.17;;;;;;;;;;1040316;28;20022;-54
2021/03/02 00:52:34;;;;;;;17.17;10.87;;;;;;;;;;1040268;28;20033;-52
2021/03/02 00:53:04;;;;;;;17.20;11.17;;;;;;;;;;1038654;28;20179;-51
2021/03/02 00:53:35;;;;;;;17.10;10.90;;;;;;;;;;1038841;28;20036;-54
2021/03/02 00:54:05;;;;;;;20.40;11.13;;;;;;;;;;1039778;28;20017;-54
2021/03/02 00:54:35;;;;;;;17.13;10.60;;;;;;;;;;1038308;28;20109;-51
2021/03/02 00:55:06;;;;;;;14.70;10.63;;;;;;;;;;1036175;28;20017;-54
2021/03/02 00:55:36;;;;;;;18.00;10.67;;;;;;;;;;1036083;28;20783;-50
2021/03/02 00:56:07;;;;;;;16.60;10.30;;;;;;;;;;1036208;28;20014;-54
2021/03/02 00:56:37;;;;;;;16.93;11.30;;;;;;;;;;1036155;28;20653;-55
2021/03/02 00:57:07;;;;;;;17.90;10.67;;;;;;;;;;1036182;28;20485;-52
2021/03/02 00:57:38;;;;;;;20.33;11.80;;;;;;;;;;1036131;28;20029;-53
2021/03/02 00:58:09;;;;;;;22.05;10.95;;;;;;;;;;1036098;28;20021;-54
2021/03/02 00:58:41;;;;;;;22.27;11.67;;;;;;;;;;1036207;28;20112;-54
2021/03/02 00:59:11;;;;;;;15.77;10.57;;;;;;;;;;1036292;28;20568;-52
2021/03/02 00:59:41;;;;;;;18.23;10.77;;;;;;;;;;1036189;28;20022;-53
2021/03/02 01:00:12;;;;;;;16.93;10.67;;;;;;;;;;1036057;28;20093;-51
2021/03/02 01:00:42;;;;;;;16.33;10.97;;;;;;;;;;1039083;28;20005;-51
2021/03/02 01:01:13;;;;;;;17.63;11.03;;;;;;;;;;1040252;28;19998;-52
2021/03/02 01:01:43;;;;;;;15.50;11.13;;;;;;;;;;1040319;28;20010;-56
2021/03/02 01:02:13;;;;;;;17.47;11.90;;;;;;;;;;1039984;28;20288;-51
2021/03/02 01:02:44;;;;;;;19.43;11.60;;;;;;;;;;1035776;28;20014;-53
2021/03/02 01:03:14;;;;;;;17.87;11.60;;;;;;;;;;1035886;28;20010;-51
2021/03/02 01:03:44;;;;;;;17.33;11.57;;;;;;;;;;1035704;28;20538;-54
2021/03/02 01:04:14;;;;;;;19.03;11.87;;;;;;;;;;1040013;28;20445;-51
2021/03/02 01:04:45;;;;;;;20.40;13.43;;;;;;;;;;1040311;28;20005;-53
2021/03/02 01:05:16;;;;;;;19.50;13.10;;;;;;;;;;1039841;28;20025;-52
2021/03/02 01:05:46;;;;;;;20.48;12.98;;;;;;;;;;1040139;28;20012;-53
2021/03/02 01:06:17;;;;;;;19.00;13.27;;;;;;;;;;1036343;28;20088;-51
2021/03/02 01:06:47;;;;;;;22.97;14.50;;;;;;;;;;1036447;28;20470;-51
2021/03/02 01:07:17;;;;;;;23.17;14.47;;;;;;;;;;1040422;28;20454;-52
2021/03/02 01:07:47;;;;;;;19.27;14.40;;;;;;;;;;1040450;28;20025;-55
2021/03/02 01:08:18;;;;;;;20.63;13.73;;;;;;;;;;1040662;28;20397;-52
2021/03/02 01:08:48;;;;;;;20.30;13.43;;;;;;;;;;1040271;28;20001;-51
2021/03/02 01:09:18;;;;;;;19.37;13.67;;;;;;;;;;1040439;28;20017;-55
2021/03/02 01:09:49;;;;;;;18.40;13.47;;;;;;;;;;1040418;28;20538;-51
2021/03/02 01:10:19;;;;;;;22.73;13.53;;;;;;;;;;1040155;28;20001;-54
2021/03/02 01:10:49;;;;;;;19.83;13.43;;;;;;;;;;1040743;28;20051;-52
2021/03/02 01:11:19;;;;;;;18.30;12.33;;;;;;;;;;1040635;28;20420;-51
2021/03/02 01:11:50;;;;;;;20.70;13.90;;;;;;;;;;1040628;28;20005;-51
2021/03/02 01:12:25;;;;;;;20.67;13.07;;;;;;;;;;1040581;28;20422;-55
2021/03/02 01:12:56;;;;;;;19.98;13.20;;;;;;;;;;1040632;28;20029;-51
2021/03/02 01:13:26;;;;;;;20.80;12.53;;;;;;;;;;1040472;28;20040;-54
2021/03/02 01:13:56;;;;;;;17.90;12.53;;;;;;;;;;1040752;28;19998;-54
2021/03/02 01:14:28;;;;;;;20.40;12.47;;;;;;;;;;1040589;28;20026;-54
2021/03/02 01:14:58;;;;;;;17.90;13.23;;;;;;;;;;1040716;28;20014;-54
2021/03/02 01:15:29;;;;;;;19.60;11.90;;;;;;;;;;1040487;28;20447;-53
2021/03/02 01:15:59;;;;;;;19.37;12.37;;;;;;;;;;1040745;28;20427;-52
2021/03/02 01:16:29;;;;;;;18.73;12.03;;;;;;;;;;1040623;28;20012;-52
2021/03/02 01:16:59;;;;;;;17.00;12.47;;;;;;;;;;1040474;28;20410;-53
2021/03/02 01:17:30;;;;;;;16.80;11.63;;;;;;;;;;1040502;28;20001;-51
2021/03/02 01:18:00;;;;;;;20.03;12.67;;;;;;;;;;1036328;28;20005;-52
2021/03/02 01:18:30;;;;;;;19.77;12.53;;;;;;;;;;1036346;28;20010;-52
2021/03/02 01:19:01;;;;;;;18.17;11.83;;;;;;;;;;1040387;28;20100;-50
2021/03/02 01:19:31;;;;;;;18.73;11.60;;;;;;;;;;1040370;28;20005;-50
2021/03/02 01:20:01;;;;;;;20.70;13.50;;;;;;;;;;1040388;28;20080;-52
2021/03/02 01:20:32;;;;;;;22.00;13.77;;;;;;;;;;1040274;28;20033;-51
2021/03/02 01:21:03;;;;;;;19.20;12.50;;;;;;;;;;1040439;28;20339;-51
2021/03/02 01:21:33;;;;;;;18.55;13.07;;;;;;;;;;1040373;28;20049;-50
2021/03/02 01:22:03;;;;;;;20.30;13.07;;;;;;;;;;1040749;28;20025;-50
2021/03/02 01:22:33;;;;;;;20.70;12.83;;;;;;;;;;1040739;28;20024;-52
2021/03/02 01:23:04;;;;;;;20.13;13.03;;;;;;;;;;1040810;28;20526;-50
2021/03/02 01:23:34;;;;;;;18.93;12.73;;;;;;;;;;1040478;28;20017;-53
2021/03/02 01:24:04;;;;;;;18.53;13.30;;;;;;;;;;1040708;28;20096;-52
2021/03/02 01:24:35;;;;;;;19.80;12.80;;;;;;;;;;1040727;28;20017;-52
2021/03/02 01:25:11;;;;;;;18.63;13.27;;;;;;;;;;1040752;28;20017;-51
2021/03/02 01:25:42;;;;;;;19.80;13.35;;;;;;;;;;1040127;28;20073;-52
2021/03/02 01:26:12;;;;;;;19.17;13.17;;;;;;;;;;1040523;28;20052;-52
2021/03/02 01:26:42;;;;;;;23.23;14.17;;;;;;;;;;1040367;28;20080;-50
2021/03/02 01:27:13;;;;;;;23.43;13.60;;;;;;;;;;1036381;28;20076;-50
2021/03/02 01:27:43;;;;;;;19.40;13.60;;;;;;;;;;1040305;28;20024;-50
2021/03/02 01:28:13;;;;;;;20.63;13.80;;;;;;;;;;1040471;28;20013;-52
2021/03/02 01:28:43;;;;;;;22.27;14.57;;;;;;;;;;1040470;28;20161;-53
2021/03/02 01:29:14;;;;;;;22.00;14.83;;;;;;;;;;1040743;28;20016;-53
2021/03/02 01:29:44;;;;;;;21.73;14.20;;;;;;;;;;1040665;28;20380;-52
2021/03/02 01:30:16;;;;;;;22.13;14.00;;;;;;;;;;1040650;28;20033;-51
2021/03/02 01:30:46;;;;;;;21.00;14.25;;;;;;;;;;1040796;28;20009;-54
2021/03/02 01:31:17;;;;;;;20.97;14.03;;;;;;;;;;1040926;28;20022;-51
2021/03/02 01:31:47;;;;;;;20.60;13.90;;;;;;;;;;1040821;28;20116;-50
2021/03/02 01:32:17;;;;;;;22.43;14.20;;;;;;;;;;1040793;28;20052;-50
2021/03/02 01:32:48;;;;;;;20.47;14.07;;;;;;;;;;1040874;28;20016;-52
2021/03/02 01:33:18;;;;;;;24.67;14.67;;;;;;;;;;1040865;28;20056;-50
2021/03/02 01:33:48;;;;;;;21.97;14.67;;;;;;;;;;1040420;28;20043;-51
2021/03/02 01:34:18;;;;;;;20.80;14.33;;;;;;;;;;1040734;28;20367;-50
2021/03/02 01:34:49;;;;;;;24.33;15.90;;;;;;;;;;1040670;28;20067;-50
2021/03/02 01:35:19;;;;;;;23.07;14.50;;;;;;;;;;1040569;28;20426;-51
2021/03/02 01:35:49;;;;;;;23.30;14.80;;;;;;;;;;1040585;28;20071;-51
2021/03/02 01:36:19;;;;;;;24.27;14.80;;;;;;;;;;1040694;28;20039;-50
2021/03/02 01:36:50;;;;;;;19.53;14.47;;;;;;;;;;1040644;28;20061;-52
2021/03/02 01:37:20;;;;;;;22.27;15.63;;;;;;;;;;1040610;28;20394;-54
2021/03/02 01:37:50;;;;;;;25.07;15.43;;;;;;;;;;1040603;28;20020;-50
2021/03/02 01:38:21;;;;;;;25.33;14.40;;;;;;;;;;1040630;28;20108;-52
2021/03/02 01:38:51;;;;;;;22.63;15.37;;;;;;;;;;1040615;28;20374;-49
2021/03/02 01:39:21;;;;;;;22.13;14.70;;;;;;;;;;1040655;28;20014;-50
2021/03/02 01:39:51;;;;;;;27.47;14.93;;;;;;;;;;1039519;28;20129;-50
2021/03/02 01:40:22;;;;;;;22.97;15.03;;;;;;;;;;1036421;28;20018;-50
2021/03/02 01:40:52;;;;;;;23.23;15.67;;;;;;;;;;1036484;28;20036;-50
2021/03/02 01:41:23;;;;;;;24.80;15.30;;;;;;;;;;1036500;28;20029;-50
2021/03/02 01:41:53;;;;;;;24.93;15.30;;;;;;;;;;1036528;28;20099;-52
2021/03/02 01:42:24;;;;;;;23.93;15.13;;;;;;;;;;1036470;28;20105;-50
2021/03/02 01:42:54;;;;;;;25.70;15.47;;;;;;;;;;1036539;28;20105;-51
2021/03/02 01:43:24;;;;;;;24.67;14.80;;;;;;;;;;1036273;28;20360;-51
2021/03/02 01:43:54;;;;;;;24.87;15.43;;;;;;;;;;1036764;28;20048;-52
2021/03/02 01:44:28;;;;;;;19.83;14.03;;;;;;;;;;1038436;28;20032;-52
2021/03/02 01:44:58;;;;;;;22.27;14.73;;;;;;;;;;1038793;28;20018;-51
2021/03/02 01:45:28;;;;;;;24.43;15.30;;;;;;;;;;1040490;28;20372;-50
2021/03/02 01:45:59;;;;;;;26.27;14.93;;;;;;;;;;1038621;28;20093;-52
2021/03/02 01:46:29;;;;;;;23.63;14.80;;;;;;;;;;1036429;28;20018;-52
2021/03/02 01:46:59;;;;;;;22.30;14.70;;;;;;;;;;1036422;28;20021;-49
2021/03/02 01:47:29;;;;;;;22.37;15.40;;;;;;;;;;1036489;28;20367;-52
2021/03/02 01:48:00;;;;;;;24.47;16.10;;;;;;;;;;1036430;28;20006;-51
2021/03/02 01:48:31;;;;;;;20.27;15.03;;;;;;;;;;1036416;28;20526;-50
2021/03/02 01:49:02;;;;;;;24.73;16.13;;;;;;;;;;1036360;28;20060;-50
2021/03/02 01:49:32;;;;;;;27.80;15.20;;;;;;;;;;1036461;28;20018;-51
2021/03/02 01:50:05;;;;;;;27.70;15.47;;;;;;;;;;1036437;28;20021;-53
2021/03/02 01:50:36;;;;;;;22.60;15.02;;;;;;;;;;1036442;28;20021;-51
2021/03/02 01:51:06;;;;;;;24.20;15.43;;;;;;;;;;1036514;28;20101;-52
2021/03/02 01:51:36;;;;;;;21.93;15.30;;;;;;;;;;1036560;28;20380;-52
2021/03/02 01:52:07;;;;;;;22.90;14.13;;;;;;;;;;1036448;28;20674;-51
2021/03/02 01:52:38;;;;;;;20.83;15.27;;;;;;;;;;1036441;28;20042;-52
2021/03/02 01:53:08;;;;;;;21.53;14.97;;;;;;;;;;1036478;28;20140;-50
2021/03/02 01:53:38;;;;;;;23.47;15.57;;;;;;;;;;1036204;28;20064;-51
2021/03/02 01:54:09;;;;;;;21.50;15.40;;;;;;;;;;1036433;28;20473;-51
2021/03/02 01:54:39;;;;;;;24.15;15.77;;;;;;;;;;1036415;28;20061;-51
2021/03/02 01:55:10;;;;;;;24.60;16.20;;;;;;;;;;1036193;28;20356;-51
2021/03/02 01:55:40;;;;;;;23.27;15.50;;;;;;;;;;1031895;28;20019;-54
2021/03/02 01:56:11;;;;;;;26.10;15.20;;;;;;;;;;1035629;28;20026;-52
2021/03/02 01:56:41;;;;;;;23.03;16.67;;;;;;;;;;1036121;28;20014;-52
2021/03/02 01:57:11;;;;;;;25.17;15.97;;;;;;;;;;1036045;28;20021;-50
2021/03/02 01:57:42;;;;;;;26.30;16.27;;;;;;;;;;1036404;28;20348;-51
2021/03/02 01:58:13;;;;;;;24.42;16.05;;;;;;;;;;1040120;28;20013;-50
2021/03/02 01:58:43;;;;;;;22.97;16.10;;;;;;;;;;1040592;28;20014;-51
2021/03/02 01:59:13;;;;;;;25.80;15.83;;;;;;;;;;1040463;28;20100;-50
2021/03/02 01:59:43;;;;;;;25.57;16.70;;;;;;;;;;1040610;28;20119;-51
2021/03/02 02:00:17;;;;;;;23.10;15.83;;;;;;;;;;1040444;28;20096;-50
2021/03/02 02:00:48;;;;;;;23.92;16.15;;;;;;;;;;1040541;28;20006;-50
2021/03/02 02:01:18;;;;;;;24.95;16.40;;;;;;;;;;1040556;28;20051;-51
2021/03/02 02:01:50;;;;;;;24.97;16.17;;;;;;;;;;1040592;28;20179;-50
2021/03/02 02:02:21;;;;;;;23.45;16.52;;;;;;;;;;1040176;28;20017;-50
2021/03/02 02:02:52;;;;;;;24.33;15.90;;;;;;;;;;1040159;28;20047;-51
2021/03/02 02:03:40;;;;;;;23.15;16.98;;;;;;;;;;1035910;28;20022;-54
2021/03/02 02:04:17;;;;;;;22.95;16.02;;;;;;;;;;1034899;28;20550;-51
2021/03/02 02:04:55;;;;;;;21.88;16.13;;;;;;;;;;1032010;28;20534;-53
2021/03/02 02:05:25;;;;;;;25.92;17.02;;;;;;;;;;1036075;28;20561;-51
2021/03/02 02:06:09;;;;;;;26.90;16.33;;;;;;;;;;1036180;28;20037;-51
2021/03/02 02:06:46;;;;;;;27.17;17.23;;;;;;;;;;1034834;28;20100;-52
2021/03/02 02:07:18;;;;;;;23.73;16.48;;;;;;;;;;1034758;28;20463;-52
2021/03/02 02:07:50;;;;;;;24.95;17.15;;;;;;;;;;1031928;28;20345;-52
2021/03/02 02:08:21;;;;;;;25.25;16.60;;;;;;;;;;1033459;28;20063;-53
2021/03/02 02:08:51;;;;;;;24.20;16.58;;;;;;;;;;1032628;28;20011;-53
2021/03/02 02:09:29;;;;;;;24.20;16.30;;;;;;;;;;1036424;28;20021;-53
2021/03/02 02:10:04;;;;;;;26.55;16.27;;;;;;;;;;1040153;28;20009;-51
2021/03/02 02:10:37;;;;;;;22.98;16.48;;;;;;;;;;1037702;28;20093;-51
2021/03/02 02:11:11;;;;;;;28.63;17.48;;;;;;;;;;1040127;28;20044;-50
2021/03/02 02:11:49;;;;;;;24.27;17.25;;;;;;;;;;1040171;28;20113;-50
2021/03/02 02:12:51;;;;;;;27.05;17.05;;;;;;;;;;1037914;28;20048;-53
2021/03/02 02:13:23;;;;;;;28.15;17.15;;;;;;;;;;1039930;28;20076;-52
2021/03/02 02:13:57;;;;;;;25.92;16.30;;;;;;;;;;1035972;28;20014;-50
2021/03/02 02:14:29;;;;;;;24.73;16.90;;;;;;;;;;1035886;28;20029;-50
2021/03/02 02:15:17;;;;;;;24.42;16.70;;;;;;;;;;1035990;28;20013;-51
2021/03/02 02:15:47;;;;;;;24.60;16.85;;;;;;;;;;1038994;28;20191;-53
2021/03/02 02:16:18;;;;;;;24.80;17.00;;;;;;;;;;1040075;28;20071;-50
2021/03/02 02:16:50;;;;;;;25.07;16.90;;;;;;;;;;1039903;28;20023;-54
2021/03/02 02:17:28;;;;;;;24.98;16.30;;;;;;;;;;1035945;28;20032;-50
2021/03/02 02:18:03;;;;;;;26.90;17.48;;;;;;;;;;1035824;28;20136;-52
2021/03/02 02:18:33;;;;;;;26.45;17.50;;;;;;;;;;1036063;28;20479;-50
2021/03/02 02:19:04;;;;;;;29.00;17.80;;;;;;;;;;1033607;28;20061;-50
2021/03/02 02:19:50;;;;;;;25.03;16.87;;;;;;;;;;1035960;28;20010;-51
2021/03/02 02:20:23;;;;;;;24.40;17.63;;;;;;;;;;1031881;28;20021;-51
2021/03/02 02:21:06;;;;;;;24.27;17.17;;;;;;;;;;1034351;28;20018;-50
2021/03/02 02:21:54;;;;;;;23.73;16.90;;;;;;;;;;1035865;28;20170;-51
2021/03/02 02:22:27;;;;;;;25.42;17.63;;;;;;;;;;1035545;28;20029;-52
2021/03/02 02:23:00;;;;;;;28.60;17.13;;;;;;;;;;1035793;28;20479;-54
2021/03/02 02:23:40;;;;;;;27.80;18.00;;;;;;;;;;1035604;28;20481;-52
2021/03/02 02:24:25;;;;;;;26.85;18.23;;;;;;;;;;1037896;28;20016;-53
2021/03/02 02:25:02;;;;;;;27.17;18.02;;;;;;;;;;1035788;28;20018;-51
2021/03/02 02:25:50;;;;;;;27.38;17.02;;;;;;;;;;1035813;28;20014;-51
2021/03/02 02:26:29;;;;;;;27.98;17.73;;;;;;;;;;1035776;28;20017;-50
2021/03/02 02:27:00;;;;;;;26.75;17.20;;;;;;;;;;1039855;28;20024;-51
2021/03/02 02:27:31;;;;;;;27.85;17.08;;;;;;;;;;1031781;28;20038;-51
2021/03/02 02:28:01;;;;;;;28.47;18.23;;;;;;;;;;1031877;28;20018;-51
2021/03/02 02:28:31;;;;;;;27.17;18.03;;;;;;;;;;1031804;28;20545;-53
2021/03/02 02:29:02;;;;;;;25.67;17.27;;;;;;;;;;1031989;28;20006;-53
2021/03/02 02:29:34;;;;;;;30.10;17.87;;;;;;;;;;1040039;28;20014;-50
2021/03/02 02:30:04;;;;;;;27.70;18.02;;;;;;;;;;1035688;28;20048;-52
2021/03/02 02:30:34;;;;;;;28.97;18.77;;;;;;;;;;1032048;28;20505;-51
2021/03/02 02:31:05;;;;;;;24.10;16.83;;;;;;;;;;1039966;28;20109;-52
2021/03/02 02:31:37;;;;;;;27.60;17.83;;;;;;;;;;1039860;28;20021;-50
2021/03/02 02:32:07;;;;;;;27.50;18.52;;;;;;;;;;1039942;28;20502;-53
2021/03/02 02:32:38;;;;;;;26.70;18.57;;;;;;;;;;1039656;28;20027;-52
2021/03/02 02:33:08;;;;;;;26.13;17.57;;;;;;;;;;1035924;28;20543;-54
2021/03/02 02:33:39;;;;;;;27.43;18.03;;;;;;;;;;1039675;28;20053;-50
2021/03/02 02:34:10;;;;;;;29.67;17.95;;;;;;;;;;1039741;28;20024;-51
2021/03/02 02:34:41;;;;;;;27.92;18.20;;;;;;;;;;1039928;28;20029;-52
2021/03/02 02:35:11;;;;;;;27.53;19.03;;;;;;;;;;1035674;28;20026;-50
2021/03/02 02:35:42;;;;;;;25.30;17.63;;;;;;;;;;1031778;28;20097;-51
2021/03/02 02:36:13;;;;;;;23.97;17.87;;;;;;;;;;1031748;28;20048;-52
2021/03/02 02:36:53;;;;;;;27.20;18.38;;;;;;;;;;1032227;28;20014;-51
2021/03/02 02:37:24;;;;;;;29.45;17.70;;;;;;;;;;1039900;28;20025;-53
2021/03/02 02:37:54;;;;;;;28.35;18.70;;;;;;;;;;1039925;28;20009;-51
2021/03/02 02:38:24;;;;;;;24.60;17.40;;;;;;;;;;1035777;28;20026;-52
2021/03/02 02:38:55;;;;;;;26.73;18.00;;;;;;;;;;1035882;28;20026;-52
2021/03/02 02:39:25;;;;;;;28.88;18.23;;;;;;;;;;1035801;28;20025;-52
2021/03/02 02:39:56;;;;;;;28.17;18.07;;;;;;;;;;1031995;28;20049;-51
2021/03/02 02:40:26;;;;;;;25.20;17.93;;;;;;;;;;1031994;28;20153;-52
2021/03/02 02:40:56;;;;;;;26.03;18.20;;;;;;;;;;1031907;28;20094;-53
2021/03/02 02:41:27;;;;;;;24.97;18.20;;;;;;;;;;1035866;28;20060;-52
2021/03/02 02:41:57;;;;;;;28.10;18.60;;;;;;;;;;1039944;28;20517;-51
2021/03/02 02:42:27;;;;;;;25.23;17.27;;;;;;;;;;1039890;28;20017;-51
2021/03/02 02:42:58;;;;;;;25.67;17.90;;;;;;;;;;1039898;28;20013;-52
2021/03/02 02:43:28;;;;;;;24.47;18.03;;;;;;;;;;1039607;28;20100;-53
2021/03/02 02:43:58;;;;;;;23.37;18.07;;;;;;;;;;1031821;28;20391;-51
2021/03/02 02:44:28;;;;;;;25.67;18.37;;;;;;;;;;1031780;28;20013;-51
2021/03/02 02:44:59;;;;;;;25.77;18.30;;;;;;;;;;1027756;28;20101;-54
2021/03/02 02:45:29;;;;;;;31.30;18.83;;;;;;;;;;1027659;28;20372;-50
2021/03/02 02:45:59;;;;;;;28.57;17.60;;;;;;;;;;1031767;28;20025;-50
2021/03/02 02:46:30;;;;;;;26.53;18.70;;;;;;;;;;1031831;28;20022;-52
2021/03/02 02:47:00;;;;;;;26.37;17.87;;;;;;;;;;1035895;28;20042;-52
2021/03/02 02:47:31;;;;;;;25.90;17.37;;;;;;;;;;1035915;28;20347;-54
2021/03/02 02:48:01;;;;;;;27.47;18.37;;;;;;;;;;1039942;28;20009;-51
2021/03/02 02:48:31;;;;;;;29.00;18.77;;;;;;;;;;1035857;28;20517;-51
2021/03/02 02:49:02;;;;;;;25.90;17.83;;;;;;;;;;1035776;28;20033;-50
2021/03/02 02:49:32;;;;;;;25.43;18.27;;;;;;;;;;1031745;28;20474;-51
2021/03/02 02:50:03;;;;;;;25.90;17.80;;;;;;;;;;1027919;28;20027;-50
2021/03/02 02:50:33;;;;;;;27.02;18.77;;;;;;;;;;1031957;28;20017;-50
2021/03/02 02:51:04;;;;;;;30.10;18.93;;;;;;;;;;1028135;28;20023;-50
2021/03/02 02:51:34;;;;;;;27.03;18.20;;;;;;;;;;1032254;28;20006;-52
2021/03/02 02:52:05;;;;;;;31.10;18.73;;;;;;;;;;1040089;28;20096;-53
2021/03/02 02:52:35;;;;;;;28.67;19.43;;;;;;;;;;1035987;28;20359;-52
2021/03/02 02:53:05;;;;;;;27.10;18.23;;;;;;;;;;1035950;28;20573;-50
2021/03/02 02:53:35;;;;;;;26.13;19.10;;;;;;;;;;1031752;28;20023;-51
2021/03/02 02:54:06;;;;;;;27.83;18.03;;;;;;;;;;1031985;28;20489;-50
2021/03/02 02:54:36;;;;;;;27.77;19.13;;;;;;;;;;1036000;28;20091;-51
2021/03/02 02:55:07;;;;;;;27.47;18.77;;;;;;;;;;1032089;28;20040;-54
2021/03/02 02:55:42;;;;;;;29.70;17.97;;;;;;;;;;1032018;28;20101;-50
2021/03/02 02:56:13;;;;;;;29.95;18.40;;;;;;;;;;1036083;28;20036;-51
2021/03/02 02:56:43;;;;;;;25.10;18.00;;;;;;;;;;1032714;28;20451;-50
2021/03/02 02:57:14;;;;;;;25.67;17.80;;;;;;;;;;1036646;28;20014;-52
2021/03/02 02:57:48;;;;;;;25.00;18.45;;;;;;;;;;1040086;28;20018;-54
2021/03/02 02:58:19;;;;;;;26.65;18.20;;;;;;;;;;1040067;28;20036;-53
2021/03/02 02:59:08;;;;;;;23.70;17.53;;;;;;;;;;1040358;28;20029;-51
2021/03/02 02:59:38;;;;;;;25.40;18.30;;;;;;;;;;1040100;28;20814;-50
2021/03/02 03:00:09;;;;;;;25.50;17.93;;;;;;;;;;1035856;28;20069;-52
2021/03/02 03:00:39;;;;;;;23.97;16.80;;;;;;;;;;1035950;28;20026;-50
2021/03/02 03:01:11;;;;;;;28.00;17.63;;;;;;;;;;1035865;28;20022;-51
2021/03/02 03:01:42;;;;;;;24.83;17.25;;;;;;;;;;1040032;28;20099;-50
2021/03/02 03:02:23;;;;;;;25.33;17.92;;;;;;;;;;1039891;28;20124;-49
2021/03/02 03:02:53;;;;;;;26.52;17.25;;;;;;;;;;1039982;28;20458;-53
2021/03/02 03:03:24;;;;;;;24.67;18.20;;;;;;;;;;1031685;28;20026;-52